sensor_id;sensor_type;location;lat;lon;timestamp;P1;durP1;ratioP1;P2;durP2;ratioP2
52618;SDS011;38513;53.234;6.568;2023-09-12T00:00:44;46.95;;;36.72;;
52618;SDS011;38513;53.234;6.568;2023-09-12T00:03:10;48.20;;;36.80;;
52618;SDS011;38513;53.234;6.568;2023-09-12T00:05:39;48.78;;;36.40;;
52618;SDS011;38513;53.234;6.568;2023-09-12T00:08:06;48.20;;;34.50;;
52618;SDS011;38513;53.234;6.568;2023-09-12T00:10:32;46.60;;;34.30;;
52618;SDS011;38513;53.234;6.568;2023-09-12T00:12:58;46.55;;;35.60;;
52618;SDS011;38513;53.234;6.568;2023-09-12T00:15:25;45.15;;;35.80;;
52618;SDS011;38513;53.234;6.568;2023-09-12T00:17:52;48.17;;;37.08;;
52618;SDS011;38513;53.234;6.568;2023-09-12T00:20:18;49.63;;;37.20;;
52618;SDS011;38513;53.234;6.568;2023-09-12T00:22:44;47.83;;;37.00;;
52618;SDS011;38513;53.234;6.568;2023-09-12T00:25:10;43.17;;;34.17;;
52618;SDS011;38513;53.234;6.568;2023-09-12T00:27:36;46.50;;;36.15;;
52618;SDS011;38513;53.234;6.568;2023-09-12T00:30:02;47.85;;;38.15;;
52618;SDS011;38513;53.234;6.568;2023-09-12T00:32:29;45.55;;;36.60;;
52618;SDS011;38513;53.234;6.568;2023-09-12T00:34:55;50.08;;;37.20;;
52618;SDS011;38513;53.234;6.568;2023-09-12T00:37:21;48.55;;;36.65;;
52618;SDS011;38513;53.234;6.568;2023-09-12T00:39:47;47.75;;;36.33;;
52618;SDS011;38513;53.234;6.568;2023-09-12T00:42:14;46.50;;;37.28;;
52618;SDS011;38513;53.234;6.568;2023-09-12T00:44:42;50.47;;;36.42;;
52618;SDS011;38513;53.234;6.568;2023-09-12T00:47:09;49.33;;;37.10;;
52618;SDS011;38513;53.234;6.568;2023-09-12T00:49:36;50.17;;;36.90;;
52618;SDS011;38513;53.234;6.568;2023-09-12T00:52:05;43.90;;;35.95;;
52618;SDS011;38513;53.234;6.568;2023-09-12T00:54:32;47.65;;;36.65;;
52618;SDS011;38513;53.234;6.568;2023-09-12T00:57:01;48.05;;;36.63;;
52618;SDS011;38513;53.234;6.568;2023-09-12T00:59:27;50.53;;;37.28;;
52618;SDS011;38513;53.234;6.568;2023-09-12T01:01:54;49.05;;;36.60;;
52618;SDS011;38513;53.234;6.568;2023-09-12T01:04:20;49.17;;;37.95;;
52618;SDS011;38513;53.234;6.568;2023-09-12T01:06:46;47.13;;;36.40;;
52618;SDS011;38513;53.234;6.568;2023-09-12T01:09:13;47.03;;;35.90;;
52618;SDS011;38513;53.234;6.568;2023-09-12T01:11:39;48.83;;;35.20;;
52618;SDS011;38513;53.234;6.568;2023-09-12T01:14:11;48.65;;;36.58;;
52618;SDS011;38513;53.234;6.568;2023-09-12T01:16:40;47.50;;;36.28;;
52618;SDS011;38513;53.234;6.568;2023-09-12T01:19:07;49.88;;;37.63;;
52618;SDS011;38513;53.234;6.568;2023-09-12T01:27:33;47.20;;;36.58;;
52618;SDS011;38513;53.234;6.568;2023-09-12T01:30:04;46.20;;;35.43;;
52618;SDS011;38513;53.234;6.568;2023-09-12T01:32:39;48.83;;;35.38;;
52618;SDS011;38513;53.234;6.568;2023-09-12T01:35:05;45.20;;;35.78;;
52618;SDS011;38513;53.234;6.568;2023-09-12T01:37:33;47.47;;;36.35;;
52618;SDS011;38513;53.234;6.568;2023-09-12T01:39:59;45.78;;;35.45;;
52618;SDS011;38513;53.234;6.568;2023-09-12T01:42:27;47.17;;;36.53;;
52618;SDS011;38513;53.234;6.568;2023-09-12T01:44:56;50.25;;;36.50;;
52618;SDS011;38513;53.234;6.568;2023-09-12T01:47:23;49.80;;;36.13;;
52618;SDS011;38513;53.234;6.568;2023-09-12T01:49:50;51.00;;;37.03;;
52618;SDS011;38513;53.234;6.568;2023-09-12T01:52:18;45.15;;;35.35;;
52618;SDS011;38513;53.234;6.568;2023-09-12T01:54:45;50.40;;;38.53;;
52618;SDS011;38513;53.234;6.568;2023-09-12T01:57:12;52.20;;;37.92;;
52618;SDS011;38513;53.234;6.568;2023-09-12T01:59:39;48.67;;;37.78;;
52618;SDS011;38513;53.234;6.568;2023-09-12T02:02:06;51.15;;;37.40;;
52618;SDS011;38513;53.234;6.568;2023-09-12T02:04:32;49.97;;;38.08;;
52618;SDS011;38513;53.234;6.568;2023-09-12T02:06:58;49.83;;;37.83;;
52618;SDS011;38513;53.234;6.568;2023-09-12T02:09:25;54.78;;;40.67;;
52618;SDS011;38513;53.234;6.568;2023-09-12T02:11:51;51.92;;;37.13;;
52618;SDS011;38513;53.234;6.568;2023-09-12T02:14:17;49.95;;;37.13;;
52618;SDS011;38513;53.234;6.568;2023-09-12T02:16:43;51.60;;;37.15;;
52618;SDS011;38513;53.234;6.568;2023-09-12T02:19:10;50.33;;;38.60;;
52618;SDS011;38513;53.234;6.568;2023-09-12T02:21:36;53.33;;;39.67;;
52618;SDS011;38513;53.234;6.568;2023-09-12T02:24:06;52.42;;;39.30;;
52618;SDS011;38513;53.234;6.568;2023-09-12T02:26:32;53.67;;;39.75;;
52618;SDS011;38513;53.234;6.568;2023-09-12T02:29:01;51.83;;;37.65;;
52618;SDS011;38513;53.234;6.568;2023-09-12T02:31:29;50.15;;;38.75;;
52618;SDS011;38513;53.234;6.568;2023-09-12T02:34:00;52.95;;;39.90;;
52618;SDS011;38513;53.234;6.568;2023-09-12T02:36:26;53.20;;;39.57;;
52618;SDS011;38513;53.234;6.568;2023-09-12T02:38:53;51.30;;;37.47;;
52618;SDS011;38513;53.234;6.568;2023-09-12T02:41:20;57.85;;;40.42;;
52618;SDS011;38513;53.234;6.568;2023-09-12T02:43:46;54.55;;;40.95;;
52618;SDS011;38513;53.234;6.568;2023-09-12T02:46:12;59.78;;;42.28;;
52618;SDS011;38513;53.234;6.568;2023-09-12T02:48:38;58.40;;;42.38;;
52618;SDS011;38513;53.234;6.568;2023-09-12T02:51:07;60.67;;;42.15;;
52618;SDS011;38513;53.234;6.568;2023-09-12T02:53:34;52.55;;;39.58;;
52618;SDS011;38513;53.234;6.568;2023-09-12T02:56:00;58.53;;;41.92;;
52618;SDS011;38513;53.234;6.568;2023-09-12T02:58:29;59.47;;;42.28;;
52618;SDS011;38513;53.234;6.568;2023-09-12T03:00:55;55.75;;;40.20;;
52618;SDS011;38513;53.234;6.568;2023-09-12T03:03:21;57.75;;;41.63;;
52618;SDS011;38513;53.234;6.568;2023-09-12T03:05:47;55.80;;;40.17;;
52618;SDS011;38513;53.234;6.568;2023-09-12T03:08:14;54.13;;;40.13;;
52618;SDS011;38513;53.234;6.568;2023-09-12T03:10:40;57.40;;;40.88;;
52618;SDS011;38513;53.234;6.568;2023-09-12T03:13:06;50.08;;;37.83;;
52618;SDS011;38513;53.234;6.568;2023-09-12T03:15:35;54.38;;;40.00;;
52618;SDS011;38513;53.234;6.568;2023-09-12T03:18:03;56.42;;;40.63;;
52618;SDS011;38513;53.234;6.568;2023-09-12T03:20:29;55.88;;;39.22;;
52618;SDS011;38513;53.234;6.568;2023-09-12T03:22:55;53.75;;;38.97;;
52618;SDS011;38513;53.234;6.568;2023-09-12T03:25:21;56.80;;;39.30;;
52618;SDS011;38513;53.234;6.568;2023-09-12T03:27:47;55.17;;;40.07;;
52618;SDS011;38513;53.234;6.568;2023-09-12T03:30:16;55.08;;;39.13;;
52618;SDS011;38513;53.234;6.568;2023-09-12T03:32:42;53.35;;;38.40;;
52618;SDS011;38513;53.234;6.568;2023-09-12T03:35:09;58.47;;;39.40;;
52618;SDS011;38513;53.234;6.568;2023-09-12T03:37:35;55.95;;;40.03;;
52618;SDS011;38513;53.234;6.568;2023-09-12T03:40:06;54.80;;;37.78;;
52618;SDS011;38513;53.234;6.568;2023-09-12T03:42:35;56.42;;;38.85;;
52618;SDS011;38513;53.234;6.568;2023-09-12T03:45:01;57.47;;;39.00;;
52618;SDS011;38513;53.234;6.568;2023-09-12T03:47:28;54.55;;;38.63;;
52618;SDS011;38513;53.234;6.568;2023-09-12T03:49:54;55.08;;;38.40;;
52618;SDS011;38513;53.234;6.568;2023-09-12T03:52:23;55.15;;;38.63;;
52618;SDS011;38513;53.234;6.568;2023-09-12T03:54:49;51.97;;;36.83;;
52618;SDS011;38513;53.234;6.568;2023-09-12T03:57:15;53.38;;;38.00;;
52618;SDS011;38513;53.234;6.568;2023-09-12T03:59:42;51.70;;;36.08;;
52618;SDS011;38513;53.234;6.568;2023-09-12T04:02:12;51.22;;;36.70;;
52618;SDS011;38513;53.234;6.568;2023-09-12T04:04:38;52.97;;;38.40;;
52618;SDS011;38513;53.234;6.568;2023-09-12T04:07:04;54.30;;;38.27;;
52618;SDS011;38513;53.234;6.568;2023-09-12T04:09:31;55.40;;;37.80;;
52618;SDS011;38513;53.234;6.568;2023-09-12T04:11:57;51.28;;;36.58;;
52618;SDS011;38513;53.234;6.568;2023-09-12T04:14:23;49.60;;;35.97;;
52618;SDS011;38513;53.234;6.568;2023-09-12T04:16:50;55.10;;;37.60;;
52618;SDS011;38513;53.234;6.568;2023-09-12T04:19:19;54.03;;;37.78;;
52618;SDS011;38513;53.234;6.568;2023-09-12T04:21:45;51.72;;;35.70;;
52618;SDS011;38513;53.234;6.568;2023-09-12T04:24:11;55.10;;;38.47;;
52618;SDS011;38513;53.234;6.568;2023-09-12T04:26:38;55.17;;;38.33;;
52618;SDS011;38513;53.234;6.568;2023-09-12T04:29:09;50.83;;;36.72;;
52618;SDS011;38513;53.234;6.568;2023-09-12T04:31:35;54.15;;;37.55;;
52618;SDS011;38513;53.234;6.568;2023-09-12T04:34:01;51.90;;;35.88;;
52618;SDS011;38513;53.234;6.568;2023-09-12T04:36:28;55.03;;;37.95;;
52618;SDS011;38513;53.234;6.568;2023-09-12T04:38:54;57.72;;;39.33;;
52618;SDS011;38513;53.234;6.568;2023-09-12T04:41:20;56.42;;;39.03;;
52618;SDS011;38513;53.234;6.568;2023-09-12T04:43:46;50.95;;;35.90;;
52618;SDS011;38513;53.234;6.568;2023-09-12T04:46:12;57.78;;;39.35;;
52618;SDS011;38513;53.234;6.568;2023-09-12T04:48:38;58.00;;;39.65;;
52618;SDS011;38513;53.234;6.568;2023-09-12T04:51:05;56.93;;;39.20;;
52618;SDS011;38513;53.234;6.568;2023-09-12T04:53:31;55.77;;;39.33;;
52618;SDS011;38513;53.234;6.568;2023-09-12T04:56:01;53.80;;;35.97;;
52618;SDS011;38513;53.234;6.568;2023-09-12T04:58:27;60.55;;;39.15;;
52618;SDS011;38513;53.234;6.568;2023-09-12T05:00:54;53.20;;;37.90;;
52618;SDS011;38513;53.234;6.568;2023-09-12T05:03:20;58.35;;;38.58;;
52618;SDS011;38513;53.234;6.568;2023-09-12T05:08:26;54.90;;;39.45;;
52618;SDS011;38513;53.234;6.568;2023-09-12T05:10:52;57.33;;;40.45;;
52618;SDS011;38513;53.234;6.568;2023-09-12T05:13:18;59.10;;;40.40;;
52618;SDS011;38513;53.234;6.568;2023-09-12T05:15:45;57.03;;;40.40;;
52618;SDS011;38513;53.234;6.568;2023-09-12T05:18:12;57.08;;;38.72;;
52618;SDS011;38513;53.234;6.568;2023-09-12T05:20:39;56.75;;;39.50;;
52618;SDS011;38513;53.234;6.568;2023-09-12T05:23:05;59.40;;;40.90;;
52618;SDS011;38513;53.234;6.568;2023-09-12T05:25:31;57.53;;;38.73;;
52618;SDS011;38513;53.234;6.568;2023-09-12T05:27:58;58.95;;;40.53;;
52618;SDS011;38513;53.234;6.568;2023-09-12T05:30:24;57.92;;;40.58;;
52618;SDS011;38513;53.234;6.568;2023-09-12T05:32:53;60.28;;;40.53;;
52618;SDS011;38513;53.234;6.568;2023-09-12T05:35:22;56.63;;;39.92;;
52618;SDS011;38513;53.234;6.568;2023-09-12T05:37:49;60.25;;;41.15;;
52618;SDS011;38513;53.234;6.568;2023-09-12T05:40:18;59.70;;;39.95;;
52618;SDS011;38513;53.234;6.568;2023-09-12T05:42:47;64.72;;;41.70;;
52618;SDS011;38513;53.234;6.568;2023-09-12T05:45:13;66.22;;;42.97;;
52618;SDS011;38513;53.234;6.568;2023-09-12T05:47:39;71.60;;;43.63;;
52618;SDS011;38513;53.234;6.568;2023-09-12T05:50:06;71.18;;;43.40;;
52618;SDS011;38513;53.234;6.568;2023-09-12T05:52:32;66.73;;;41.13;;
52618;SDS011;38513;53.234;6.568;2023-09-12T05:55:04;67.72;;;42.15;;
52618;SDS011;38513;53.234;6.568;2023-09-12T05:57:31;64.53;;;41.55;;
52618;SDS011;38513;53.234;6.568;2023-09-12T06:00:00;65.65;;;42.28;;
52618;SDS011;38513;53.234;6.568;2023-09-12T06:02:29;63.63;;;41.13;;
52618;SDS011;38513;53.234;6.568;2023-09-12T06:04:55;66.40;;;42.40;;
52618;SDS011;38513;53.234;6.568;2023-09-12T06:07:22;65.05;;;41.10;;
52618;SDS011;38513;53.234;6.568;2023-09-12T06:09:48;61.63;;;41.05;;
52618;SDS011;38513;53.234;6.568;2023-09-12T06:12:17;67.78;;;41.67;;
52618;SDS011;38513;53.234;6.568;2023-09-12T06:14:43;66.63;;;41.25;;
52618;SDS011;38513;53.234;6.568;2023-09-12T06:17:10;67.07;;;41.60;;
52618;SDS011;38513;53.234;6.568;2023-09-12T06:19:39;67.50;;;42.67;;
52618;SDS011;38513;53.234;6.568;2023-09-12T06:22:05;70.63;;;40.88;;
52618;SDS011;38513;53.234;6.568;2023-09-12T06:24:31;67.27;;;41.87;;
52618;SDS011;38513;53.234;6.568;2023-09-12T06:26:57;70.40;;;42.58;;
52618;SDS011;38513;53.234;6.568;2023-09-12T06:29:24;73.22;;;42.22;;
52618;SDS011;38513;53.234;6.568;2023-09-12T06:31:50;72.97;;;43.05;;
52618;SDS011;38513;53.234;6.568;2023-09-12T06:34:16;80.53;;;44.40;;
52618;SDS011;38513;53.234;6.568;2023-09-12T06:36:42;83.50;;;43.50;;
52618;SDS011;38513;53.234;6.568;2023-09-12T06:39:10;83.28;;;45.45;;
52618;SDS011;38513;53.234;6.568;2023-09-12T06:41:36;91.85;;;46.35;;
52618;SDS011;38513;53.234;6.568;2023-09-12T06:44:02;90.57;;;46.30;;
52618;SDS011;38513;53.234;6.568;2023-09-12T06:46:30;86.68;;;45.05;;
52618;SDS011;38513;53.234;6.568;2023-09-12T06:48:59;96.20;;;46.47;;
52618;SDS011;38513;53.234;6.568;2023-09-12T06:51:25;95.97;;;46.78;;
52618;SDS011;38513;53.234;6.568;2023-09-12T06:53:51;93.40;;;45.00;;
52618;SDS011;38513;53.234;6.568;2023-09-12T06:56:18;91.32;;;44.40;;
52618;SDS011;38513;53.234;6.568;2023-09-12T06:58:44;88.70;;;44.70;;
52618;SDS011;38513;53.234;6.568;2023-09-12T07:01:10;83.25;;;44.53;;
52618;SDS011;38513;53.234;6.568;2023-09-12T07:03:44;81.80;;;44.45;;
52618;SDS011;38513;53.234;6.568;2023-09-12T07:06:10;83.95;;;45.33;;
52618;SDS011;38513;53.234;6.568;2023-09-12T07:08:36;82.25;;;46.22;;
52618;SDS011;38513;53.234;6.568;2023-09-12T07:11:06;82.53;;;45.07;;
52618;SDS011;38513;53.234;6.568;2023-09-12T07:13:32;77.82;;;43.50;;
52618;SDS011;38513;53.234;6.568;2023-09-12T07:15:58;73.18;;;43.55;;
52618;SDS011;38513;53.234;6.568;2023-09-12T07:18:28;75.57;;;44.27;;
52618;SDS011;38513;53.234;6.568;2023-09-12T07:20:58;71.63;;;42.33;;
52618;SDS011;38513;53.234;6.568;2023-09-12T07:23:25;66.60;;;41.37;;
52618;SDS011;38513;53.234;6.568;2023-09-12T07:25:51;68.90;;;41.95;;
52618;SDS011;38513;53.234;6.568;2023-09-12T07:28:18;64.93;;;40.88;;
52618;SDS011;38513;53.234;6.568;2023-09-12T07:30:47;66.70;;;40.28;;
52618;SDS011;38513;53.234;6.568;2023-09-12T07:33:14;68.72;;;40.53;;
52618;SDS011;38513;53.234;6.568;2023-09-12T07:35:40;58.93;;;39.17;;
52618;SDS011;38513;53.234;6.568;2023-09-12T07:38:09;60.65;;;38.90;;
52618;SDS011;38513;53.234;6.568;2023-09-12T07:40:38;58.35;;;38.33;;
52618;SDS011;38513;53.234;6.568;2023-09-12T07:43:04;62.47;;;40.20;;
52618;SDS011;38513;53.234;6.568;2023-09-12T07:45:32;60.92;;;39.25;;
52618;SDS011;38513;53.234;6.568;2023-09-12T07:48:06;62.90;;;39.80;;
52618;SDS011;38513;53.234;6.568;2023-09-12T07:50:32;62.50;;;41.42;;
52618;SDS011;38513;53.234;6.568;2023-09-12T07:53:05;63.83;;;41.53;;
52618;SDS011;38513;53.234;6.568;2023-09-12T07:55:31;64.70;;;41.65;;
52618;SDS011;38513;53.234;6.568;2023-09-12T07:58:02;65.53;;;42.30;;
52618;SDS011;38513;53.234;6.568;2023-09-12T08:00:28;63.20;;;41.15;;
52618;SDS011;38513;53.234;6.568;2023-09-12T08:02:54;63.13;;;41.38;;
52618;SDS011;38513;53.234;6.568;2023-09-12T08:05:20;59.75;;;41.28;;
52618;SDS011;38513;53.234;6.568;2023-09-12T08:07:47;64.00;;;41.88;;
52618;SDS011;38513;53.234;6.568;2023-09-12T08:10:13;63.80;;;43.53;;
52618;SDS011;38513;53.234;6.568;2023-09-12T08:12:39;65.13;;;42.85;;
52618;SDS011;38513;53.234;6.568;2023-09-12T08:15:06;64.03;;;42.50;;
52618;SDS011;38513;53.234;6.568;2023-09-12T08:17:33;62.38;;;42.25;;
52618;SDS011;38513;53.234;6.568;2023-09-12T08:19:59;64.13;;;42.70;;
52618;SDS011;38513;53.234;6.568;2023-09-12T08:22:25;62.25;;;41.90;;
52618;SDS011;38513;53.234;6.568;2023-09-12T08:24:52;61.67;;;41.05;;
52618;SDS011;38513;53.234;6.568;2023-09-12T08:27:18;62.20;;;40.20;;
52618;SDS011;38513;53.234;6.568;2023-09-12T08:29:48;61.33;;;40.78;;
52618;SDS011;38513;53.234;6.568;2023-09-12T08:32:15;60.17;;;39.95;;
52618;SDS011;38513;53.234;6.568;2023-09-12T08:34:41;62.50;;;41.35;;
52618;SDS011;38513;53.234;6.568;2023-09-12T08:37:10;61.42;;;39.53;;
52618;SDS011;38513;53.234;6.568;2023-09-12T08:39:39;53.47;;;37.15;;
52618;SDS011;38513;53.234;6.568;2023-09-12T08:42:06;56.47;;;37.65;;
52618;SDS011;38513;53.234;6.568;2023-09-12T08:44:33;57.45;;;37.42;;
52618;SDS011;38513;53.234;6.568;2023-09-12T08:46:59;55.80;;;37.13;;
52618;SDS011;38513;53.234;6.568;2023-09-12T08:49:26;53.30;;;36.92;;
52618;SDS011;38513;53.234;6.568;2023-09-12T08:51:53;52.53;;;36.63;;
52618;SDS011;38513;53.234;6.568;2023-09-12T08:54:19;50.22;;;34.17;;
52618;SDS011;38513;53.234;6.568;2023-09-12T08:56:46;49.15;;;34.53;;
52618;SDS011;38513;53.234;6.568;2023-09-12T08:59:15;50.25;;;34.25;;
52618;SDS011;38513;53.234;6.568;2023-09-12T09:01:41;46.97;;;33.90;;
52618;SDS011;38513;53.234;6.568;2023-09-12T09:04:08;48.33;;;33.25;;
52618;SDS011;38513;53.234;6.568;2023-09-12T09:06:34;47.25;;;34.38;;
52618;SDS011;38513;53.234;6.568;2023-09-12T09:09:05;47.70;;;33.97;;
52618;SDS011;38513;53.234;6.568;2023-09-12T09:11:33;47.58;;;34.65;;
52618;SDS011;38513;53.234;6.568;2023-09-12T09:14:01;49.97;;;35.22;;
52618;SDS011;38513;53.234;6.568;2023-09-12T09:16:28;46.20;;;33.70;;
52618;SDS011;38513;53.234;6.568;2023-09-12T09:19:04;48.80;;;33.42;;
52618;SDS011;38513;53.234;6.568;2023-09-12T09:21:35;49.30;;;35.73;;
52618;SDS011;38513;53.234;6.568;2023-09-12T09:24:04;48.53;;;34.72;;
52618;SDS011;38513;53.234;6.568;2023-09-12T09:26:48;50.22;;;34.53;;
52618;SDS011;38513;53.234;6.568;2023-09-12T09:31:41;49.38;;;34.85;;
52618;SDS011;38513;53.234;6.568;2023-09-12T09:34:20;49.55;;;34.50;;
52618;SDS011;38513;53.234;6.568;2023-09-12T09:36:51;51.70;;;33.92;;
52618;SDS011;38513;53.234;6.568;2023-09-12T09:39:18;50.72;;;34.70;;
52618;SDS011;38513;53.234;6.568;2023-09-12T09:41:48;48.10;;;32.03;;
52618;SDS011;38513;53.234;6.568;2023-09-12T09:44:15;44.28;;;32.00;;
52618;SDS011;38513;53.234;6.568;2023-09-12T09:46:44;47.47;;;34.72;;
52618;SDS011;38513;53.234;6.568;2023-09-12T09:49:18;47.58;;;34.50;;
52618;SDS011;38513;53.234;6.568;2023-09-12T09:51:45;46.10;;;34.10;;
52618;SDS011;38513;53.234;6.568;2023-09-12T09:54:11;46.15;;;33.25;;
52618;SDS011;38513;53.234;6.568;2023-09-12T09:56:53;45.08;;;31.90;;
52618;SDS011;38513;53.234;6.568;2023-09-12T09:59:23;43.42;;;33.42;;
52618;SDS011;38513;53.234;6.568;2023-09-12T10:01:50;46.33;;;33.70;;
52618;SDS011;38513;53.234;6.568;2023-09-12T10:04:19;45.38;;;33.95;;
52618;SDS011;38513;53.234;6.568;2023-09-12T10:06:46;46.38;;;33.95;;
52618;SDS011;38513;53.234;6.568;2023-09-12T10:09:13;41.47;;;31.15;;
52618;SDS011;38513;53.234;6.568;2023-09-12T10:11:40;45.58;;;34.22;;
52618;SDS011;38513;53.234;6.568;2023-09-12T10:14:09;44.90;;;32.70;;
52618;SDS011;38513;53.234;6.568;2023-09-12T10:16:47;45.47;;;33.85;;
52618;SDS011;38513;53.234;6.568;2023-09-12T10:21:49;43.58;;;31.83;;
52618;SDS011;38513;53.234;6.568;2023-09-12T10:24:16;45.20;;;33.05;;
52618;SDS011;38513;53.234;6.568;2023-09-12T10:26:45;44.25;;;32.83;;
52618;SDS011;38513;53.234;6.568;2023-09-12T10:29:13;43.35;;;32.88;;
52618;SDS011;38513;53.234;6.568;2023-09-12T10:31:40;42.60;;;31.73;;
52618;SDS011;38513;53.234;6.568;2023-09-12T10:34:07;46.60;;;33.13;;
52618;SDS011;38513;53.234;6.568;2023-09-12T10:36:38;44.13;;;33.38;;
52618;SDS011;38513;53.234;6.568;2023-09-12T10:39:04;44.42;;;32.95;;
52618;SDS011;38513;53.234;6.568;2023-09-12T10:41:32;43.28;;;32.53;;
52618;SDS011;38513;53.234;6.568;2023-09-12T10:43:59;40.15;;;30.02;;
52618;SDS011;38513;53.234;6.568;2023-09-12T10:46:25;43.03;;;31.20;;
52618;SDS011;38513;53.234;6.568;2023-09-12T10:48:51;40.67;;;31.38;;
52618;SDS011;38513;53.234;6.568;2023-09-12T10:51:24;45.60;;;31.38;;
52618;SDS011;38513;53.234;6.568;2023-09-12T10:53:50;41.30;;;31.65;;
52618;SDS011;38513;53.234;6.568;2023-09-12T10:56:19;40.00;;;29.37;;
52618;SDS011;38513;53.234;6.568;2023-09-12T11:01:34;37.28;;;27.77;;
52618;SDS011;38513;53.234;6.568;2023-09-12T11:06:46;39.88;;;30.42;;
52618;SDS011;38513;53.234;6.568;2023-09-12T11:09:25;39.90;;;29.65;;
52618;SDS011;38513;53.234;6.568;2023-09-12T11:14:20;38.28;;;29.38;;
52618;SDS011;38513;53.234;6.568;2023-09-12T11:19:43;36.03;;;27.55;;
52618;SDS011;38513;53.234;6.568;2023-09-12T11:24:48;36.33;;;27.27;;
52618;SDS011;38513;53.234;6.568;2023-09-12T11:27:14;37.77;;;27.83;;
52618;SDS011;38513;53.234;6.568;2023-09-12T11:29:40;36.33;;;27.83;;
52618;SDS011;38513;53.234;6.568;2023-09-12T11:32:06;37.28;;;27.00;;
52618;SDS011;38513;53.234;6.568;2023-09-12T11:37:02;34.55;;;26.40;;
52618;SDS011;38513;53.234;6.568;2023-09-12T11:39:33;33.38;;;25.88;;
52618;SDS011;38513;53.234;6.568;2023-09-12T11:42:01;33.53;;;25.33;;
52618;SDS011;38513;53.234;6.568;2023-09-12T11:44:28;33.22;;;25.15;;
52618;SDS011;38513;53.234;6.568;2023-09-12T11:46:57;29.52;;;23.95;;
52618;SDS011;38513;53.234;6.568;2023-09-12T11:49:28;34.00;;;25.37;;
52618;SDS011;38513;53.234;6.568;2023-09-12T11:52:01;32.78;;;25.50;;
52618;SDS011;38513;53.234;6.568;2023-09-12T11:54:28;33.58;;;24.67;;
52618;SDS011;38513;53.234;6.568;2023-09-12T11:57:01;33.25;;;25.02;;
52618;SDS011;38513;53.234;6.568;2023-09-12T11:59:31;33.92;;;26.27;;
52618;SDS011;38513;53.234;6.568;2023-09-12T12:01:57;34.88;;;26.75;;
52618;SDS011;38513;53.234;6.568;2023-09-12T12:04:24;34.25;;;24.10;;
52618;SDS011;38513;53.234;6.568;2023-09-12T12:06:51;29.90;;;23.33;;
52618;SDS011;38513;53.234;6.568;2023-09-12T12:09:20;31.97;;;23.20;;
52618;SDS011;38513;53.234;6.568;2023-09-12T12:11:47;28.08;;;20.65;;
52618;SDS011;38513;53.234;6.568;2023-09-12T12:14:13;31.13;;;23.58;;
52618;SDS011;38513;53.234;6.568;2023-09-12T12:16:41;29.13;;;21.90;;
52618;SDS011;38513;53.234;6.568;2023-09-12T12:19:10;26.73;;;20.20;;
52618;SDS011;38513;53.234;6.568;2023-09-12T12:21:40;25.40;;;19.05;;
52618;SDS011;38513;53.234;6.568;2023-09-12T12:24:10;26.67;;;21.13;;
52618;SDS011;38513;53.234;6.568;2023-09-12T12:26:41;28.60;;;20.90;;
52618;SDS011;38513;53.234;6.568;2023-09-12T12:29:17;25.83;;;20.63;;
52618;SDS011;38513;53.234;6.568;2023-09-12T12:31:43;28.38;;;22.65;;
52618;SDS011;38513;53.234;6.568;2023-09-12T12:34:09;31.05;;;21.98;;
52618;SDS011;38513;53.234;6.568;2023-09-12T12:36:44;28.48;;;21.52;;
52618;SDS011;38513;53.234;6.568;2023-09-12T12:39:16;34.03;;;23.92;;
52618;SDS011;38513;53.234;6.568;2023-09-12T12:41:44;21.02;;;15.60;;
52618;SDS011;38513;53.234;6.568;2023-09-12T12:44:10;14.10;;;9.98;;
52618;SDS011;38513;53.234;6.568;2023-09-12T12:46:51;16.80;;;11.50;;
52618;SDS011;38513;53.234;6.568;2023-09-12T12:49:18;17.92;;;11.45;;
52618;SDS011;38513;53.234;6.568;2023-09-12T12:51:44;18.77;;;14.50;;
52618;SDS011;38513;53.234;6.568;2023-09-12T12:54:11;20.33;;;14.45;;
52618;SDS011;38513;53.234;6.568;2023-09-12T12:56:37;21.45;;;15.00;;
52618;SDS011;38513;53.234;6.568;2023-09-12T12:59:04;21.58;;;15.77;;
52618;SDS011;38513;53.234;6.568;2023-09-12T13:01:33;25.02;;;16.73;;
52618;SDS011;38513;53.234;6.568;2023-09-12T13:03:59;20.73;;;16.45;;
52618;SDS011;38513;53.234;6.568;2023-09-12T13:06:26;23.40;;;17.63;;
52618;SDS011;38513;53.234;6.568;2023-09-12T13:08:55;25.25;;;16.67;;
52618;SDS011;38513;53.234;6.568;2023-09-12T13:11:22;24.65;;;17.20;;
52618;SDS011;38513;53.234;6.568;2023-09-12T13:13:51;22.95;;;16.88;;
52618;SDS011;38513;53.234;6.568;2023-09-12T13:16:20;25.83;;;18.42;;
52618;SDS011;38513;53.234;6.568;2023-09-12T13:18:47;25.48;;;18.13;;
52618;SDS011;38513;53.234;6.568;2023-09-12T13:21:13;25.47;;;18.17;;
52618;SDS011;38513;53.234;6.568;2023-09-12T13:23:39;24.90;;;18.13;;
52618;SDS011;38513;53.234;6.568;2023-09-12T13:26:06;23.00;;;17.20;;
52618;SDS011;38513;53.234;6.568;2023-09-12T13:28:33;25.23;;;16.88;;
52618;SDS011;38513;53.234;6.568;2023-09-12T13:30:59;22.10;;;16.05;;
52618;SDS011;38513;53.234;6.568;2023-09-12T13:33:25;20.35;;;15.90;;
52618;SDS011;38513;53.234;6.568;2023-09-12T13:35:51;19.67;;;14.98;;
52618;SDS011;38513;53.234;6.568;2023-09-12T13:38:18;21.60;;;14.60;;
52618;SDS011;38513;53.234;6.568;2023-09-12T13:40:45;17.95;;;14.30;;
52618;SDS011;38513;53.234;6.568;2023-09-12T13:43:11;19.70;;;14.15;;
52618;SDS011;38513;53.234;6.568;2023-09-12T13:45:38;17.77;;;14.27;;
52618;SDS011;38513;53.234;6.568;2023-09-12T13:48:04;18.25;;;13.45;;
52618;SDS011;38513;53.234;6.568;2023-09-12T13:50:30;18.88;;;12.68;;
52618;SDS011;38513;53.234;6.568;2023-09-12T13:52:58;17.05;;;13.68;;
52618;SDS011;38513;53.234;6.568;2023-09-12T13:55:35;17.43;;;13.07;;
52618;SDS011;38513;53.234;6.568;2023-09-12T13:58:02;17.57;;;12.80;;
52618;SDS011;38513;53.234;6.568;2023-09-12T14:00:29;15.53;;;12.43;;
52618;SDS011;38513;53.234;6.568;2023-09-12T14:02:55;16.95;;;12.70;;
52618;SDS011;38513;53.234;6.568;2023-09-12T14:05:21;17.23;;;11.73;;
52618;SDS011;38513;53.234;6.568;2023-09-12T14:07:47;16.52;;;11.27;;
52618;SDS011;38513;53.234;6.568;2023-09-12T14:10:14;14.23;;;10.32;;
52618;SDS011;38513;53.234;6.568;2023-09-12T14:12:40;12.73;;;9.30;;
52618;SDS011;38513;53.234;6.568;2023-09-12T14:15:07;14.75;;;10.23;;
52618;SDS011;38513;53.234;6.568;2023-09-12T14:17:34;12.15;;;9.05;;
52618;SDS011;38513;53.234;6.568;2023-09-12T14:20:00;14.48;;;9.35;;
52618;SDS011;38513;53.234;6.568;2023-09-12T14:22:26;15.23;;;9.23;;
52618;SDS011;38513;53.234;6.568;2023-09-12T14:24:52;11.82;;;9.45;;
52618;SDS011;38513;53.234;6.568;2023-09-12T14:27:19;12.30;;;9.55;;
52618;SDS011;38513;53.234;6.568;2023-09-12T14:29:45;12.02;;;8.82;;
52618;SDS011;38513;53.234;6.568;2023-09-12T14:32:14;13.68;;;9.63;;
52618;SDS011;38513;53.234;6.568;2023-09-12T14:34:40;13.48;;;9.05;;
52618;SDS011;38513;53.234;6.568;2023-09-12T14:37:06;12.57;;;9.18;;
52618;SDS011;38513;53.234;6.568;2023-09-12T14:39:33;12.63;;;9.18;;
52618;SDS011;38513;53.234;6.568;2023-09-12T14:41:59;12.15;;;9.02;;
52618;SDS011;38513;53.234;6.568;2023-09-12T14:44:27;13.27;;;9.30;;
52618;SDS011;38513;53.234;6.568;2023-09-12T14:46:53;13.05;;;8.68;;
52618;SDS011;38513;53.234;6.568;2023-09-12T14:49:20;13.38;;;10.10;;
52618;SDS011;38513;53.234;6.568;2023-09-12T14:51:48;16.33;;;10.75;;